Time;durP1;ratioP1;P1;durP2;ratioP2;P2;SDS_P1;SDS_P2;PMS_P1;PMS_P2;Temp;Humidity;BMP_temperature;BMP_pressure;BME280_temperature;BME280_humidity;BME280_pressure;Samples;Min_cycle;Max_cycle;Signal;HPM_P1;HPM_P2
2023/02/04 00:01:56;;;;;;;7.30;3.42;;;;;;;17.19;51.63;103367.88;4864673;29;20059;-83
2023/02/04 00:04:21;;;;;;;10.52;3.85;;;;;;;17.19;51.88;103359.19;4848813;29;20481;-84
2023/02/04 00:06:47;;;;;;;7.75;3.40;;;;;;;17.18;51.72;103358.31;4837050;29;20128;-88
2023/02/04 00:09:32;;;;;;;6.80;3.28;;;;;;;17.19;51.37;103367.00;4879691;29;20055;-86
2023/02/04 00:14:47;;;;;;;8.05;3.33;;;;;;;17.15;51.58;103371.19;5036748;24;20069;-86
2023/02/04 00:35:40;;;;;;;8.15;3.42;;;;;;;17.17;51.57;103381.66;4882778;29;20044;-87
2023/02/04 00:44:15;;;;;;;8.20;3.05;;;;;;;17.14;51.44;103386.78;4867280;29;20110;-87
2023/02/04 01:08:31;;;;;;;7.53;3.20;;;;;;;17.09;51.56;103391.81;5119199;23;20057;-83
2023/02/04 01:10:57;;;;;;;7.38;3.20;;;;;;;17.09;51.72;103393.53;4872559;29;20518;-84
2023/02/04 01:13:24;;;;;;;7.97;2.80;;;;;;;17.10;51.50;103398.78;4855508;29;20051;-83
2023/02/04 01:15:50;;;;;;;8.43;3.30;;;;;;;17.08;51.59;103397.84;4886563;29;20138;-84
2023/02/04 01:18:16;;;;;;;6.13;2.80;;;;;;;17.08;51.54;103408.25;4870085;29;20420;-86
2023/02/04 01:20:41;;;;;;;8.10;2.92;;;;;;;17.06;51.56;103405.59;4838366;29;20036;-84
2023/02/04 01:23:07;;;;;;;7.40;2.88;;;;;;;17.06;51.64;103413.41;4869545;29;20045;-83
2023/02/04 01:26:03;;;;;;;8.25;3.20;;;;;;;17.04;51.44;103415.06;4860670;29;20044;-90
2023/02/04 01:39:08;;;;;;;5.78;2.60;;;;;;;17.05;51.61;103440.28;4981946;23;20080;-83
2023/02/04 01:41:33;;;;;;;5.75;2.47;;;;;;;17.05;51.55;103448.06;4864459;29;20140;-83
2023/02/04 01:43:59;;;;;;;6.15;2.70;;;;;;;17.04;51.61;103446.28;4877827;29;20048;-83
2023/02/04 01:46:24;;;;;;;6.15;2.80;;;;;;;17.04;51.46;103453.22;4872816;29;20041;-84
2023/02/04 01:48:50;;;;;;;7.15;2.70;;;;;;;17.03;51.53;103447.13;4873132;29;20065;-84
2023/02/04 01:51:25;;;;;;;5.43;2.42;;;;;;;17.03;51.56;103447.13;4858625;29;20045;-83
2023/02/04 01:53:59;;;;;;;6.90;3.03;;;;;;;17.02;51.68;103450.56;4876063;29;20061;-83
2023/02/04 01:56:28;;;;;;;7.20;2.70;;;;;;;17.03;51.63;103451.47;4892088;29;20041;-83
2023/02/04 01:58:58;;;;;;;6.03;2.80;;;;;;;17.02;51.63;103449.69;4875242;29;20033;-83
2023/02/04 02:01:53;;;;;;;6.18;2.78;;;;;;;17.04;51.47;103453.22;4861679;29;20045;-83
2023/02/04 02:05:03;;;;;;;6.30;3.00;;;;;;;17.03;51.49;103454.94;4876970;29;20033;-83
2023/02/04 02:07:38;;;;;;;7.88;2.80;;;;;;;17.02;51.74;103458.34;4891143;29;20044;-83
2023/02/04 02:10:05;;;;;;;5.00;2.60;;;;;;;17.03;51.52;103456.66;4892878;29;20202;-83
2023/02/04 02:12:31;;;;;;;7.18;2.83;;;;;;;17.03;51.30;103454.94;4876300;29;20041;-83
2023/02/04 02:14:58;;;;;;;7.20;2.90;;;;;;;17.04;51.58;103455.81;4877647;29;20041;-84
2023/02/04 02:17:23;;;;;;;6.60;2.80;;;;;;;17.02;51.63;103447.94;4877788;29;20041;-83
2023/02/04 02:19:49;;;;;;;6.85;2.80;;;;;;;17.03;51.77;103457.53;4865063;29;20048;-83
2023/02/04 02:22:27;;;;;;;6.03;2.63;;;;;;;17.01;51.44;103456.59;4877420;29;20044;-83
2023/02/04 02:24:52;;;;;;;5.32;2.50;;;;;;;17.01;51.47;103467.00;4891741;29;20052;-83
2023/02/04 02:27:18;;;;;;;6.93;2.55;;;;;;;17.02;51.48;103466.16;4876366;29;20472;-83
2023/02/04 02:29:44;;;;;;;7.47;2.67;;;;;;;17.02;51.43;103465.28;4891566;29;20033;-83
2023/02/04 02:32:12;;;;;;;5.55;2.40;;;;;;;17.04;51.37;103471.44;4859163;29;20041;-83
2023/02/04 02:34:38;;;;;;;7.45;2.70;;;;;;;17.03;51.57;103470.56;4858775;29;20041;-83
2023/02/04 02:37:05;;;;;;;7.00;2.80;;;;;;;17.04;51.63;103474.91;4855688;29;20048;-83
2023/02/04 02:39:32;;;;;;;6.43;2.60;;;;;;;17.05;51.42;103471.50;4856754;29;20085;-84
2023/02/04 02:41:57;;;;;;;5.50;2.55;;;;;;;17.03;51.31;103470.56;4857225;29;20049;-83
2023/02/04 02:44:25;;;;;;;5.53;2.50;;;;;;;17.03;51.67;103478.34;4856817;29;20044;-83
2023/02/04 02:46:52;;;;;;;5.93;2.63;;;;;;;17.03;51.35;103467.94;4856241;29;20034;-84
2023/02/04 02:49:19;;;;;;;7.13;2.60;;;;;;;17.03;51.66;103467.94;4872789;29;20044;-83
2023/02/04 02:51:46;;;;;;;7.18;2.50;;;;;;;17.02;51.52;103467.88;4855337;29;20064;-82
2023/02/04 02:54:52;;;;;;;6.03;2.63;;;;;;;17.03;51.51;103460.16;4872680;29;20064;-82
2023/02/04 02:57:21;;;;;;;6.53;2.40;;;;;;;17.03;51.45;103467.94;4857460;29;20061;-83
2023/02/04 02:59:47;;;;;;;7.18;2.72;;;;;;;17.00;51.48;103466.94;4860052;29;20484;-83
2023/02/04 03:02:37;;;;;;;6.97;2.40;;;;;;;17.02;51.53;103473.97;4881127;29;20101;-84
2023/02/04 03:05:03;;;;;;;5.90;2.60;;;;;;;17.01;51.58;103473.94;4882126;29;20084;-83
2023/02/04 03:07:29;;;;;;;7.28;2.60;;;;;;;17.01;51.63;103472.22;4856396;29;20041;-83
2023/02/04 03:09:54;;;;;;;7.40;2.30;;;;;;;17.02;51.47;103473.09;4856745;29;20041;-84
2023/02/04 03:12:20;;;;;;;5.80;2.38;;;;;;;17.00;51.50;103473.03;4862121;29;20038;-83
2023/02/04 03:14:45;;;;;;;5.43;2.10;;;;;;;17.02;51.58;103475.69;4867421;29;20013;-84
2023/02/04 03:17:11;;;;;;;5.63;2.10;;;;;;;17.02;51.44;103470.50;4868744;29;20037;-83
2023/02/04 03:19:38;;;;;;;8.05;2.40;;;;;;;17.02;51.48;103473.09;4842333;29;20070;-82
2023/02/04 03:22:04;;;;;;;6.63;2.30;;;;;;;17.00;51.45;103477.34;4857044;29;20478;-83
2023/02/04 03:24:30;;;;;;;6.80;2.78;;;;;;;17.01;51.36;103482.63;4855613;29;20042;-83
2023/02/04 03:26:56;;;;;;;5.57;1.90;;;;;;;17.00;51.54;103475.63;4871353;29;20037;-83
2023/02/04 03:29:22;;;;;;;5.75;2.38;;;;;;;17.00;51.54;103480.84;4856750;29;20116;-83
2023/02/04 03:31:47;;;;;;;5.97;2.35;;;;;;;17.01;51.61;103484.34;4856244;29;20041;-83
2023/02/04 03:34:12;;;;;;;8.07;2.83;;;;;;;16.99;51.33;103480.81;4840342;29;20045;-83
2023/02/04 03:36:38;;;;;;;5.13;2.30;;;;;;;17.00;51.53;103488.63;4855926;29;20485;-85
2023/02/04 03:39:12;;;;;;;4.63;1.92;;;;;;;16.99;51.46;103493.81;4840416;29;20088;-85
2023/02/04 03:41:38;;;;;;;7.28;2.25;;;;;;;17.00;51.46;103488.63;4858327;29;20045;-84
2023/02/04 03:44:03;;;;;;;6.57;2.40;;;;;;;17.00;51.53;103488.63;4857739;29;20049;-83
2023/02/04 03:46:29;;;;;;;6.18;2.88;;;;;;;16.99;51.13;103483.41;4859262;29;20041;-83
2023/02/04 03:48:54;;;;;;;5.38;2.20;;;;;;;17.00;51.72;103486.03;4842981;29;20037;-83
2023/02/04 03:51:20;;;;;;;5.70;2.15;;;;;;;16.99;51.49;103486.88;4873362;29;20057;-84
2023/02/04 03:53:45;;;;;;;5.78;2.47;;;;;;;16.97;51.42;103475.53;4856852;29;20041;-83
2023/02/04 03:56:11;;;;;;;6.90;2.67;;;;;;;16.98;51.67;103473.81;4855232;29;20041;-84
2023/02/04 03:58:36;;;;;;;4.95;2.08;;;;;;;16.99;51.47;103475.59;4856620;29;20041;-83
2023/02/04 04:01:34;;;;;;;5.90;2.58;;;;;;;16.98;51.58;103484.22;4871302;29;20072;-83
2023/02/04 04:04:28;;;;;;;6.40;2.40;;;;;;;16.98;51.69;103489.41;4873406;29;20105;-83
2023/02/04 04:06:53;;;;;;;6.60;2.28;;;;;;;16.98;51.74;103492.91;4875900;29;20038;-84
2023/02/04 04:09:19;;;;;;;5.50;2.15;;;;;;;16.99;51.71;103486.00;4858117;29;20097;-82
2023/02/04 04:11:52;;;;;;;5.88;2.30;;;;;;;16.98;51.66;103497.22;4843395;29;20049;-83
2023/02/04 04:14:17;;;;;;;5.70;2.30;;;;;;;16.99;51.55;103499.88;4872689;29;20041;-83
2023/02/04 04:16:53;;;;;;;5.10;2.15;;;;;;;16.98;51.64;103494.63;4856593;29;20121;-83
2023/02/04 04:19:54;;;;;;;5.47;2.10;;;;;;;16.99;51.62;103489.47;4872676;29;20037;-83
2023/02/04 04:22:20;;;;;;;6.15;2.28;;;;;;;17.00;51.61;103491.22;4875567;29;20038;-83
2023/02/04 04:24:46;;;;;;;4.43;2.05;;;;;;;16.99;51.79;103484.28;4874425;29;20503;-83
2023/02/04 04:27:11;;;;;;;5.15;1.95;;;;;;;17.01;51.64;103489.53;4873798;29;20093;-83
2023/02/04 04:35:00;;;;;;;;;;;;;;;17.04;51.72;103500.03;5266557;23;20060;-83
2023/02/04 04:37:26;;;;;;;6.40;2.40;;;;;;;17.04;51.53;103503.53;4838274;29;19924;-83
2023/02/04 04:39:51;;;;;;;4.93;2.15;;;;;;;17.03;51.76;103508.69;4841801;29;20037;-82
2023/02/04 04:42:16;;;;;;;4.78;2.00;;;;;;;17.03;51.74;103501.78;4856601;29;20038;-82
2023/02/04 04:44:49;;;;;;;6.38;2.08;;;;;;;17.03;51.49;103499.16;4873622;29;20048;-84
2023/02/04 04:47:15;;;;;;;4.88;1.90;;;;;;;17.04;51.75;103507.84;4857545;29;20065;-83
2023/02/04 04:49:40;;;;;;;3.95;1.88;;;;;;;17.04;51.65;103502.66;4857751;29;20481;-83
2023/02/04 04:52:06;;;;;;;5.07;1.95;;;;;;;17.04;51.74;103503.53;4843201;29;20098;-83
2023/02/04 04:54:31;;;;;;;4.35;1.90;;;;;;;17.02;51.59;103505.19;4854793;29;20132;-83
2023/02/04 04:56:57;;;;;;;4.68;1.80;;;;;;;17.02;51.72;103509.50;4854907;29;20118;-82
2023/02/04 04:59:22;;;;;;;4.38;1.75;;;;;;;16.99;51.63;103512.91;4826772;29;20496;-83
2023/02/04 05:01:47;;;;;;;6.25;1.92;;;;;;;17.00;51.80;103513.78;4845586;29;20049;-84
2023/02/04 05:15:53;;;;;;;5.20;2.10;;;;;;;17.00;51.58;103521.56;5235327;23;20592;-87
2023/02/04 05:24:51;;;;;;;3.78;1.83;;;;;;;17.01;51.71;103531.16;5136403;24;20066;-83
2023/02/04 05:28:00;;;;;;;5.05;2.13;;;;;;;17.00;51.69;103538.06;4880907;29;20034;-83
2023/02/04 05:44:35;;;;;;;3.85;1.88;;;;;;;17.02;51.82;103544.19;5474882;23;20037;-86
2023/02/04 05:53:58;;;;;;;5.78;2.00;;;;;;;17.02;51.71;103549.41;5184162;23;20053;-88
2023/02/04 05:56:24;;;;;;;5.20;1.77;;;;;;;17.00;51.89;103551.06;4877627;29;20449;-83
2023/02/04 06:04:42;;;;;;;4.20;1.80;;;;;;;17.02;51.95;103567.63;5064379;23;20290;-88
2023/02/04 06:13:30;;;;;;;4.77;2.10;;;;;;;17.05;52.08;103587.69;5168003;23;20057;-87
2023/02/04 06:29:59;;;;;;;3.55;1.80;;;;;;;17.05;52.08;103588.56;5016507;23;20066;-86
2023/02/04 06:32:25;;;;;;;4.28;1.80;;;;;;;17.05;52.04;103583.38;4869021;29;20042;-83
2023/02/04 06:34:50;;;;;;;4.32;1.83;;;;;;;17.04;52.06;103591.97;4860397;29;20045;-82
2023/02/04 06:37:16;;;;;;;4.13;1.70;;;;;;;17.05;51.90;103587.69;4857396;29;20041;-82
2023/02/04 06:39:42;;;;;;;4.97;1.70;;;;;;;17.06;51.73;103592.03;4855942;29;20041;-82
2023/02/04 06:42:08;;;;;;;4.55;1.90;;;;;;;17.07;52.02;103601.59;4854945;29;20072;-82
2023/02/04 06:44:33;;;;;;;3.90;1.70;;;;;;;17.06;51.99;103598.13;4854434;29;20404;-82
2023/02/04 06:46:59;;;;;;;3.40;1.58;;;;;;;17.05;51.91;103598.97;4838738;29;20496;-82
2023/02/04 06:49:24;;;;;;;4.85;1.58;;;;;;;17.06;51.95;103603.31;4823558;29;20038;-83
2023/02/04 06:51:50;;;;;;;4.15;1.70;;;;;;;17.08;51.97;103594.72;4852710;29;20045;-82
2023/02/04 06:54:15;;;;;;;3.78;1.75;;;;;;;17.08;51.77;103599.91;4852255;29;20038;-81
2023/02/04 06:56:42;;;;;;;4.97;1.77;;;;;;;17.06;51.84;103603.31;4823253;29;20044;-83
2023/02/04 06:59:08;;;;;;;5.22;1.80;;;;;;;17.09;51.95;103606.88;4854261;29;20074;-82
2023/02/04 07:01:34;;;;;;;4.47;1.90;;;;;;;17.09;51.89;103617.28;4838160;29;20397;-81
2023/02/04 07:03:59;;;;;;;3.75;1.55;;;;;;;17.09;51.82;103612.06;4833124;29;20038;-82
2023/02/04 07:06:25;;;;;;;4.93;1.65;;;;;;;17.09;51.77;103612.06;4849591;29;20033;-82
2023/02/04 07:08:50;;;;;;;3.88;1.60;;;;;;;17.09;51.93;103610.34;4817421;29;20049;-79
2023/02/04 07:11:15;;;;;;;4.20;1.63;;;;;;;17.09;51.96;103614.69;4831933;29;20068;-80
2023/02/04 07:13:41;;;;;;;4.03;1.83;;;;;;;17.09;51.87;103617.28;4863466;29;20069;-80
2023/02/04 07:16:07;;;;;;;6.05;1.88;;;;;;;17.10;52.12;103621.66;4816438;29;20046;-80
2023/02/04 07:18:32;;;;;;;5.47;1.90;;;;;;;17.10;51.92;103622.56;4847355;29;20046;-81
2023/02/04 07:20:58;;;;;;;5.30;2.15;;;;;;;17.10;51.91;103624.28;4832586;29;20069;-82
2023/02/04 07:23:24;;;;;;;6.32;2.20;;;;;;;17.10;52.01;103624.28;4851221;29;20061;-83
2023/02/04 07:25:52;;;;;;;5.45;2.00;;;;;;;17.11;52.17;103629.50;4848418;29;20182;-81
2023/02/04 07:28:17;;;;;;;9.93;1.98;;;;;;;17.13;51.90;103635.66;4831577;29;20061;-81
2023/02/04 07:30:49;;;;;;;8.65;2.25;;;;;;;17.22;52.16;103633.41;4865035;29;20038;-82
2023/02/04 07:33:14;;;;;;;14.85;2.30;;;;;;;17.38;52.43;103644.38;4863344;29;20117;-82
2023/02/04 07:35:39;;;;;;;15.20;2.40;;;;;;;17.45;51.87;103652.44;4831421;29;20041;-81
2023/02/04 07:38:05;;;;;;;10.10;2.08;;;;;;;17.48;52.12;103649.06;4831041;29;20079;-82
2023/02/04 07:40:30;;;;;;;10.50;2.63;;;;;;;17.53;51.81;103657.94;4831707;29;20045;-81
2023/02/04 07:42:57;;;;;;;9.15;2.50;;;;;;;17.52;52.06;103663.97;4847100;29;20393;-84
2023/02/04 07:45:23;;;;;;;12.50;2.85;;;;;;;17.55;52.07;103663.19;4831309;29;20485;-83
2023/02/04 07:47:48;;;;;;;7.68;2.45;;;;;;;17.56;51.97;103672.78;4816409;29;20052;-84
2023/02/04 07:50:14;;;;;;;12.10;2.58;;;;;;;17.56;52.15;103676.25;4832003;29;20569;-81
2023/02/04 07:52:41;;;;;;;18.42;3.53;;;;;;;17.57;52.00;103669.34;4831037;29;20405;-84
2023/02/04 07:55:07;;;;;;;31.70;6.80;;;;;;;17.44;52.29;103668.00;4846042;29;20163;-82
2023/02/04 07:57:32;;;;;;;20.63;5.15;;;;;;;17.44;52.22;103668.91;4845569;29;20033;-80
2023/02/04 07:59:58;;;;;;;14.23;4.75;;;;;;;17.46;51.95;103669.84;4845158;29;20053;-80
2023/02/04 08:02:24;;;;;;;18.63;4.72;;;;;;;17.48;51.85;103675.09;4845496;29;20052;-82
2023/02/04 08:04:49;;;;;;;18.00;4.68;;;;;;;17.48;51.72;103678.63;4830630;29;20041;-82
2023/02/04 08:07:15;;;;;;;17.58;4.50;;;;;;;17.50;51.78;103681.25;4831244;29;20026;-81
2023/02/04 08:09:40;;;;;;;15.98;4.30;;;;;;;17.50;51.87;103683.84;4815436;29;20489;-82
2023/02/04 08:12:05;;;;;;;15.35;4.25;;;;;;;17.51;51.79;103690.84;4816418;29;20145;-82
2023/02/04 08:14:31;;;;;;;13.57;4.60;;;;;;;17.52;51.78;103689.13;4837639;29;20049;-86
2023/02/04 08:16:56;;;;;;;14.65;4.10;;;;;;;17.53;51.58;103693.47;4865061;29;20116;-84
2023/02/04 08:19:22;;;;;;;18.23;4.47;;;;;;;17.52;51.79;103695.22;4816014;29;20481;-84
2023/02/04 08:21:47;;;;;;;13.48;3.95;;;;;;;17.53;51.58;103694.41;4833349;29;20109;-85
2023/02/04 08:24:15;;;;;;;12.38;3.55;;;;;;;17.53;51.43;103698.69;4839995;29;20041;-85
2023/02/04 08:26:41;;;;;;;12.73;3.72;;;;;;;17.53;51.58;103704.81;4871394;29;20033;-85
2023/02/04 08:29:07;;;;;;;10.48;3.65;;;;;;;17.52;51.73;103702.16;4852787;29;20057;-85
2023/02/04 08:31:33;;;;;;;13.27;4.28;;;;;;;17.51;51.76;103701.25;4846935;29;20074;-85
2023/02/04 08:33:59;;;;;;;12.32;3.55;;;;;;;17.50;51.70;103709.88;4831311;29;20041;-85
2023/02/04 08:36:25;;;;;;;9.63;3.28;;;;;;;17.50;51.68;103709.88;4862551;29;20041;-84
2023/02/04 08:38:50;;;;;;;12.07;4.05;;;;;;;17.51;51.75;103721.19;4846126;29;20033;-85
2023/02/04 08:41:15;;;;;;;9.57;3.58;;;;;;;17.50;51.75;103714.22;4831134;29;20084;-86
2023/02/04 08:43:41;;;;;;;11.43;4.05;;;;;;;17.48;51.53;103716.75;4847073;29;20116;-83
2023/02/04 08:46:06;;;;;;;11.32;4.00;;;;;;;17.47;51.57;103715.88;4817176;29;20120;-82
2023/02/04 08:48:32;;;;;;;11.50;3.65;;;;;;;17.46;51.47;103719.31;4846423;29;20443;-81
2023/02/04 08:50:57;;;;;;;10.02;3.60;;;;;;;17.47;51.55;103715.00;4845865;29;20395;-81
2023/02/04 08:53:24;;;;;;;11.10;3.40;;;;;;;17.47;51.86;103709.78;4831370;29;20038;-84
2023/02/04 08:55:50;;;;;;;13.10;3.72;;;;;;;17.47;51.71;103713.28;4862292;29;20033;-81
2023/02/04 08:58:15;;;;;;;15.73;3.78;;;;;;;17.61;51.08;103718.97;4831067;29;20052;-83
2023/02/04 09:00:41;;;;;;;15.75;3.65;;;;;;;17.77;51.04;103723.03;4847487;29;20430;-84
2023/02/04 09:03:06;;;;;;;15.90;3.83;;;;;;;17.79;50.99;103720.47;4846606;29;20556;-83
2023/02/04 09:05:32;;;;;;;19.75;3.85;;;;;;;17.74;50.98;103719.41;4814950;29;20033;-82
2023/02/04 09:07:58;;;;;;;15.73;4.20;;;;;;;17.69;51.20;103727.94;4845407;29;20041;-82
2023/02/04 09:10:23;;;;;;;13.70;3.88;;;;;;;17.72;50.87;103736.72;4845266;29;20132;-81
2023/02/04 09:12:48;;;;;;;27.92;5.80;;;;;;;17.18;53.92;103732.09;4815202;29;20045;-80
2023/02/04 09:15:14;;;;;;;26.77;5.47;;;;;;;16.76;61.68;103737.38;4830321;29;20450;-80
2023/02/04 09:17:41;;;;;;;20.95;4.63;;;;;;;16.72;57.88;103740.69;4829853;29;20378;-81
2023/02/04 09:20:06;;;;;;;22.65;4.97;;;;;;;16.63;58.08;103742.06;4830889;29;20034;-82
2023/02/04 09:22:32;;;;;;;21.55;4.72;;;;;;;16.60;57.76;103746.28;4862678;29;20156;-81
2023/02/04 09:24:57;;;;;;;19.13;4.93;;;;;;;16.58;57.89;103745.34;4847200;29;20061;-82
2023/02/04 09:27:23;;;;;;;20.63;4.47;;;;;;;16.56;58.27;103746.97;4832225;29;20041;-82
2023/02/04 09:29:48;;;;;;;13.60;4.75;;;;;;;16.56;59.18;103750.47;4818473;29;20077;-82
2023/02/04 09:32:13;;;;;;;12.30;4.45;;;;;;;16.54;57.20;103749.50;4827852;29;20057;-82
2023/02/04 09:34:39;;;;;;;12.95;3.90;;;;;;;16.49;59.81;103750.16;4829477;29;20554;-81
2023/02/04 09:37:08;;;;;;;13.63;3.88;;;;;;;16.46;58.49;103758.69;4830092;29;20038;-82
2023/02/04 09:39:34;;;;;;;13.40;3.80;;;;;;;16.47;58.68;103755.28;4814407;29;20050;-80
2023/02/04 09:41:59;;;;;;;13.77;4.25;;;;;;;16.46;58.81;103763.91;4811426;29;20074;-81
2023/02/04 09:44:27;;;;;;;11.95;3.70;;;;;;;16.47;58.76;103765.69;4811804;29;20094;-81
2023/02/04 09:46:57;;;;;;;14.15;3.97;;;;;;;16.45;59.97;103765.63;4844998;29;20065;-81
2023/02/04 09:49:23;;;;;;;10.57;3.53;;;;;;;16.41;59.10;103768.91;4846941;29;20098;-81
2023/02/04 09:51:49;;;;;;;13.38;4.10;;;;;;;16.42;59.34;103775.91;4815661;29;20085;-81
2023/02/04 09:54:18;;;;;;;14.82;3.67;;;;;;;16.40;59.89;103769.75;4800502;29;20040;-81
2023/02/04 09:56:43;;;;;;;15.32;3.45;;;;;;;16.41;59.29;103779.28;4830444;29;20456;-81
2023/02/04 09:59:18;;;;;;;14.10;3.88;;;;;;;16.41;59.35;103784.50;4830092;29;20065;-82
2023/02/04 10:01:47;;;;;;;14.75;3.88;;;;;;;16.39;60.96;103786.16;4847567;29;20041;-82
2023/02/04 10:04:14;;;;;;;9.90;3.38;;;;;;;16.39;59.28;103788.75;4848100;29;20070;-82
2023/02/04 10:06:42;;;;;;;11.50;3.55;;;;;;;16.36;58.47;103792.94;4831775;29;20034;-81
2023/02/04 10:09:10;;;;;;;11.82;3.45;;;;;;;16.33;59.81;103791.09;4831358;29;20042;-81
2023/02/04 10:11:37;;;;;;;10.32;3.47;;;;;;;16.33;60.01;103790.19;4848055;29;20171;-82
2023/02/04 10:14:03;;;;;;;9.70;3.30;;;;;;;16.33;59.32;103801.50;4848151;29;20037;-82
2023/02/04 10:16:33;;;;;;;12.45;3.28;;;;;;;16.34;60.30;103800.66;4816652;29;20037;-82
2023/02/04 10:19:02;;;;;;;9.88;3.03;;;;;;;16.37;59.38;103797.31;4833183;29;20034;-82
2023/02/04 10:21:35;;;;;;;10.73;3.40;;;;;;;16.33;59.92;103796.31;4837530;29;20062;-82
2023/02/04 10:24:04;;;;;;;12.02;3.50;;;;;;;16.32;58.62;103798.81;4832582;29;20342;-82
2023/02/04 10:26:30;;;;;;;8.73;3.15;;;;;;;16.30;59.16;103793.56;4831701;29;20041;-80
2023/02/04 10:29:02;;;;;;;10.77;3.50;;;;;;;16.32;60.68;103801.44;4853860;29;20484;-81
2023/02/04 10:31:35;;;;;;;11.00;3.38;;;;;;;16.31;58.43;103802.22;4849508;29;20550;-81
2023/02/04 10:34:20;;;;;;;9.38;3.42;;;;;;;16.29;60.21;103802.19;4866353;29;20046;-82
2023/02/04 10:36:49;;;;;;;11.13;3.35;;;;;;;16.31;58.88;103805.75;4849142;29;20044;-82
2023/02/04 10:39:18;;;;;;;9.88;3.15;;;;;;;16.31;59.62;103810.03;4848692;29;20034;-81
2023/02/04 10:41:49;;;;;;;9.45;3.33;;;;;;;16.29;61.33;103803.88;4848848;29;20576;-82
2023/02/04 10:49:34;;;;;;;10.38;3.60;;;;;;;16.27;60.40;103802.94;5185312;24;20061;-89
2023/02/04 10:52:01;;;;;;;7.30;2.85;;;;;;;16.26;60.41;103807.22;5036454;23;20155;-88
2023/02/04 11:07:23;;;;;;;13.20;3.15;;;;;;;16.24;59.71;103798.47;5300462;23;20061;-88
2023/02/04 11:17:45;;;;;;;10.35;3.00;;;;;;;16.26;60.78;103791.63;5293875;23;20061;-88
2023/02/04 11:20:16;;;;;;;10.85;3.30;;;;;;;16.27;60.61;103795.16;4868624;29;20049;-89
2023/02/04 11:22:43;;;;;;;7.25;2.88;;;;;;;16.27;60.54;103790.84;4867157;29;20049;-90
2023/02/04 11:27:52;;;;;;;9.07;2.92;;;;;;;16.34;59.56;103789.38;5513378;23;20045;-89
2023/02/04 11:30:21;;;;;;;8.55;2.83;;;;;;;16.36;60.84;103791.22;4889138;29;20093;-87
2023/02/04 11:35:31;;;;;;;6.80;2.80;;;;;;;16.34;60.64;103784.19;4953097;23;20093;-88
2023/02/04 11:37:58;;;;;;;8.43;2.65;;;;;;;16.34;61.31;103784.19;4887750;29;20021;-87
2023/02/04 11:40:36;;;;;;;6.57;2.72;;;;;;;16.33;60.80;103780.72;5255154;23;20083;-87
2023/02/04 11:43:09;;;;;;;8.75;2.90;;;;;;;16.32;60.49;103775.44;4884151;29;20078;-86
2023/02/04 11:45:37;;;;;;;;;;;;;;;16.37;59.44;103781.72;4883736;29;20121;-81
2023/02/04 11:48:12;;;;;;;7.80;2.60;;;;;;;16.38;59.98;103786.09;4866502;29;19912;-83
2023/02/04 11:50:37;;;;;;;8.85;2.78;;;;;;;16.40;59.46;103790.53;4847799;29;20038;-81
2023/02/04 11:53:04;;;;;;;8.95;2.60;;;;;;;16.43;58.80;103788.06;4833020;29;20488;-82
2023/02/04 11:55:34;;;;;;;8.57;2.78;;;;;;;16.50;59.05;103788.31;4850813;29;20053;-81
2023/02/04 11:58:00;;;;;;;7.78;2.92;;;;;;;16.48;60.28;103793.44;4843720;29;20025;-85
2023/02/04 12:00:29;;;;;;;8.68;2.85;;;;;;;16.50;59.52;103794.41;4867566;29;20045;-88
2023/02/04 12:03:06;;;;;;;8.07;2.70;;;;;;;16.49;58.98;103794.34;4883839;29;20089;-90
2023/02/04 12:05:41;;;;;;;6.63;2.70;;;;;;;16.50;58.87;103793.50;4884927;29;20017;-89
2023/02/04 12:10:59;;;;;;;8.95;3.15;;;;;;;16.53;59.14;103794.53;5101451;23;20053;-87
2023/02/04 12:13:25;;;;;;;8.02;2.72;;;;;;;16.52;60.82;103792.75;4865572;29;20061;-89
2023/02/04 12:16:03;;;;;;;7.88;3.13;;;;;;;16.54;61.00;103790.22;4849830;29;20045;-86
2023/02/04 12:18:34;;;;;;;8.13;2.95;;;;;;;16.53;60.73;103791.94;4850212;29;20028;-87
2023/02/04 12:21:01;;;;;;;8.20;2.83;;;;;;;16.47;59.46;103793.41;4850724;29;20053;-85
2023/02/04 12:23:28;;;;;;;10.38;3.03;;;;;;;16.44;59.39;103791.56;5345463;24;20000;-84
2023/02/04 12:25:54;;;;;;;10.23;3.00;;;;;;;16.46;61.29;103797.69;4853461;29;20052;-86
2023/02/04 12:28:20;;;;;;;7.32;3.10;;;;;;;16.39;59.60;103798.25;4867626;29;20037;-85
2023/02/04 12:30:45;;;;;;;5.90;2.75;;;;;;;16.39;60.61;103803.44;4882205;29;20025;-86
2023/02/04 12:35:46;;;;;;;8.18;2.92;;;;;;;16.38;60.96;103797.38;5483400;23;20045;-86
2023/02/04 12:38:11;;;;;;;6.82;2.60;;;;;;;16.38;60.18;103796.50;4848489;29;20106;-86
2023/02/04 12:40:37;;;;;;;6.85;2.97;;;;;;;16.39;60.58;103795.66;4849088;29;20105;-86
2023/02/04 12:43:03;;;;;;;7.40;3.10;;;;;;;16.36;60.35;103799.03;4863851;29;20102;-84
2023/02/04 12:45:28;;;;;;;11.88;3.30;;;;;;;16.39;61.27;103798.25;4849351;29;20029;-85
2023/02/04 12:47:54;;;;;;;7.05;2.90;;;;;;;16.36;60.35;103796.41;5207749;24;21189;-84
2023/02/04 12:53:22;;;;;;;6.35;2.90;;;;;;;16.37;62.10;103800.78;5105294;23;20053;-82
2023/02/04 12:55:48;;;;;;;8.95;3.00;;;;;;;16.36;60.17;103796.41;4846116;29;20057;-83
2023/02/04 12:58:13;;;;;;;8.05;2.80;;;;;;;16.37;60.52;103792.97;4846806;29;20042;-83
2023/02/04 13:00:39;;;;;;;7.80;3.10;;;;;;;16.40;60.21;103784.47;4847101;29;20496;-82
2023/02/04 13:03:05;;;;;;;6.82;2.78;;;;;;;16.39;60.96;103786.16;4833258;29;20462;-81
2023/02/04 13:05:30;;;;;;;7.75;2.80;;;;;;;16.39;60.13;103775.75;4833015;29;20041;-83
2023/02/04 13:07:56;;;;;;;7.15;2.90;;;;;;;16.39;60.03;103773.16;4831366;29;20170;-83
2023/02/04 13:10:22;;;;;;;9.82;3.05;;;;;;;16.36;61.37;103778.22;4832232;29;20044;-80
2023/02/04 13:12:48;;;;;;;5.43;2.53;;;;;;;16.35;60.08;103770.34;4868601;29;20041;-81
2023/02/04 13:15:15;;;;;;;7.50;2.40;;;;;;;16.35;59.62;103766.06;4853036;29;20048;-83
2023/02/04 13:17:41;;;;;;;6.65;2.50;;;;;;;16.34;61.14;103776.41;4865148;29;20042;-83
2023/02/04 13:20:07;;;;;;;5.95;2.60;;;;;;;16.39;60.65;103772.25;4864388;29;20082;-83
2023/02/04 13:22:33;;;;;;;7.55;2.80;;;;;;;16.37;60.22;103771.31;4851609;29;20513;-82
2023/02/04 13:24:59;;;;;;;6.13;2.63;;;;;;;16.43;59.18;103772.47;4858706;29;20041;-82
2023/02/04 13:27:24;;;;;;;8.30;2.60;;;;;;;16.45;59.12;103772.53;4858621;29;20090;-82
2023/02/04 13:29:51;;;;;;;6.90;2.63;;;;;;;16.43;59.13;103774.19;4845383;29;20052;-81
2023/02/04 13:34:57;;;;;;;14.73;3.03;;;;;;;16.77;63.05;103766.06;5198651;23;20064;-81
2023/02/04 13:37:23;;;;;;;16.60;2.85;;;;;;;16.66;64.05;103764.75;5188689;23;20059;-87
2023/02/04 13:39:48;;;;;;;11.98;3.00;;;;;;;16.53;66.78;103765.06;4856295;29;20064;-86
2023/02/04 13:42:14;;;;;;;11.02;2.45;;;;;;;16.40;63.64;103768.84;4867675;29;20056;-81
2023/02/04 13:44:39;;;;;;;9.30;2.95;;;;;;;16.34;61.81;103759.09;4885781;29;20040;-77
2023/02/04 13:47:04;;;;;;;7.07;2.60;;;;;;;16.36;63.22;103766.94;4848451;29;20038;-77
2023/02/04 13:49:30;;;;;;;6.70;2.85;;;;;;;16.33;65.21;103764.19;4878746;29;20042;-77
2023/02/04 13:51:56;;;;;;;13.02;2.75;;;;;;;16.31;67.21;103761.56;4863258;29;20041;-88
2023/02/04 13:54:21;;;;;;;8.70;2.35;;;;;;;16.29;62.41;103754.50;4852899;29;20041;-78
2023/02/04 13:56:46;;;;;;;11.80;2.78;;;;;;;16.32;64.92;103759.84;4863683;29;20136;-78
2023/02/04 13:59:12;;;;;;;7.00;2.60;;;;;;;16.29;63.55;103749.31;4875002;29;20038;-85
2023/02/04 14:01:38;;;;;;;7.13;2.70;;;;;;;16.29;63.79;103747.63;4870415;29;20021;-89
2023/02/04 14:04:03;;;;;;;6.35;2.28;;;;;;;16.28;64.88;103751.03;4870643;29;20037;-86
2023/02/04 14:06:37;;;;;;;7.93;2.60;;;;;;;16.29;65.30;103755.41;4884393;29;20037;-83
2023/02/04 14:09:03;;;;;;;10.23;2.33;;;;;;;16.28;64.49;103763.13;4887411;29;20029;-86
2023/02/04 14:11:29;;;;;;;11.20;2.47;;;;;;;16.30;67.28;103762.38;4887172;29;20048;-87
2023/02/04 14:24:19;;;;;;;5.78;2.60;;;;;;;16.22;67.84;103767.25;5450469;23;20048;-87
2023/02/04 14:45:04;;;;;;;4.75;2.40;;;;;;;16.15;65.60;103757.41;5927185;23;20377;-83
2023/02/04 14:50:14;;;;;;;6.00;2.55;;;;;;;16.20;67.72;103765.38;5517519;23;20065;-84
2023/02/04 14:52:40;;;;;;;6.38;2.15;;;;;;;16.20;67.35;103765.38;4980746;24;20039;-89